sensor_id;sensor_type;location;lat;lon;timestamp;P1;durP1;ratioP1;P2;durP2;ratioP2
32250;SDS011;41295;48.518;9.206;2022-09-02T00:01:28;5.82;;;3.45;;
32250;SDS011;41295;48.518;9.206;2022-09-02T00:03:33;7.35;;;3.85;;
32250;SDS011;41295;48.518;9.206;2022-09-02T00:05:36;7.93;;;3.80;;
32250;SDS011;41295;48.518;9.206;2022-09-02T00:07:39;6.45;;;3.72;;
32250;SDS011;41295;48.518;9.206;2022-09-02T00:09:42;9.63;;;4.03;;
32250;SDS011;41295;48.518;9.206;2022-09-02T00:11:45;8.23;;;3.50;;
32250;SDS011;41295;48.518;9.206;2022-09-02T00:13:52;7.00;;;3.80;;
32250;SDS011;41295;48.518;9.206;2022-09-02T00:15:56;6.88;;;3.50;;
32250;SDS011;41295;48.518;9.206;2022-09-02T00:17:58;4.28;;;3.88;;
32250;SDS011;41295;48.518;9.206;2022-09-02T00:20:01;7.38;;;3.78;;
32250;SDS011;41295;48.518;9.206;2022-09-02T00:22:05;8.50;;;3.05;;
32250;SDS011;41295;48.518;9.206;2022-09-02T00:24:07;4.93;;;3.60;;
32250;SDS011;41295;48.518;9.206;2022-09-02T00:26:10;9.93;;;4.28;;
32250;SDS011;41295;48.518;9.206;2022-09-02T00:28:14;7.22;;;3.40;;
32250;SDS011;41295;48.518;9.206;2022-09-02T00:30:20;6.93;;;3.58;;
32250;SDS011;41295;48.518;9.206;2022-09-02T00:32:23;7.10;;;3.50;;
32250;SDS011;41295;48.518;9.206;2022-09-02T00:34:26;6.20;;;2.95;;
32250;SDS011;41295;48.518;9.206;2022-09-02T00:36:28;5.60;;;3.55;;
32250;SDS011;41295;48.518;9.206;2022-09-02T00:38:32;5.28;;;3.20;;
32250;SDS011;41295;48.518;9.206;2022-09-02T00:40:37;7.40;;;3.63;;
32250;SDS011;41295;48.518;9.206;2022-09-02T00:42:44;7.63;;;3.30;;
32250;SDS011;41295;48.518;9.206;2022-09-02T00:44:47;9.20;;;3.72;;
32250;SDS011;41295;48.518;9.206;2022-09-02T00:46:51;8.27;;;3.65;;
32250;SDS011;41295;48.518;9.206;2022-09-02T00:48:55;7.75;;;3.22;;
32250;SDS011;41295;48.518;9.206;2022-09-02T00:51:00;10.80;;;3.58;;
32250;SDS011;41295;48.518;9.206;2022-09-02T00:53:07;7.28;;;3.40;;
32250;SDS011;41295;48.518;9.206;2022-09-02T00:55:13;4.95;;;3.67;;
32250;SDS011;41295;48.518;9.206;2022-09-02T00:57:18;4.38;;;3.75;;
32250;SDS011;41295;48.518;9.206;2022-09-02T00:59:25;6.10;;;3.60;;
32250;SDS011;41295;48.518;9.206;2022-09-02T01:01:32;9.77;;;4.35;;
32250;SDS011;41295;48.518;9.206;2022-09-02T01:03:37;5.07;;;3.28;;
32250;SDS011;41295;48.518;9.206;2022-09-02T01:05:41;7.72;;;3.50;;
32250;SDS011;41295;48.518;9.206;2022-09-02T01:07:46;6.00;;;3.20;;
32250;SDS011;41295;48.518;9.206;2022-09-02T01:09:51;8.48;;;3.30;;
32250;SDS011;41295;48.518;9.206;2022-09-02T01:11:55;6.25;;;3.30;;
32250;SDS011;41295;48.518;9.206;2022-09-02T01:13:59;6.22;;;3.33;;
32250;SDS011;41295;48.518;9.206;2022-09-02T01:16:03;7.53;;;3.40;;
32250;SDS011;41295;48.518;9.206;2022-09-02T01:18:12;4.80;;;3.13;;
32250;SDS011;41295;48.518;9.206;2022-09-02T01:20:20;4.65;;;2.97;;
32250;SDS011;41295;48.518;9.206;2022-09-02T01:22:28;6.30;;;3.30;;
32250;SDS011;41295;48.518;9.206;2022-09-02T01:24:32;7.03;;;3.33;;
32250;SDS011;41295;48.518;9.206;2022-09-02T01:26:35;7.47;;;3.28;;
32250;SDS011;41295;48.518;9.206;2022-09-02T01:28:38;5.20;;;3.08;;
32250;SDS011;41295;48.518;9.206;2022-09-02T01:30:43;3.70;;;3.30;;
32250;SDS011;41295;48.518;9.206;2022-09-02T01:32:48;7.30;;;3.45;;
32250;SDS011;41295;48.518;9.206;2022-09-02T01:34:51;5.40;;;2.97;;
32250;SDS011;41295;48.518;9.206;2022-09-02T01:36:54;9.70;;;3.00;;
32250;SDS011;41295;48.518;9.206;2022-09-02T01:38:58;4.45;;;3.10;;
32250;SDS011;41295;48.518;9.206;2022-09-02T01:41:01;5.45;;;3.28;;
32250;SDS011;41295;48.518;9.206;2022-09-02T01:43:04;10.90;;;3.30;;
32250;SDS011;41295;48.518;9.206;2022-09-02T01:45:09;5.75;;;3.25;;
32250;SDS011;41295;48.518;9.206;2022-09-02T01:47:13;8.98;;;3.65;;
32250;SDS011;41295;48.518;9.206;2022-09-02T01:49:18;8.27;;;4.07;;
32250;SDS011;41295;48.518;9.206;2022-09-02T01:51:20;8.10;;;4.25;;
32250;SDS011;41295;48.518;9.206;2022-09-02T01:53:23;8.75;;;3.63;;
32250;SDS011;41295;48.518;9.206;2022-09-02T01:55:28;5.15;;;3.72;;
32250;SDS011;41295;48.518;9.206;2022-09-02T01:57:30;10.52;;;3.58;;
32250;SDS011;41295;48.518;9.206;2022-09-02T01:59:33;6.45;;;3.40;;
32250;SDS011;41295;48.518;9.206;2022-09-02T02:01:36;7.25;;;3.80;;
32250;SDS011;41295;48.518;9.206;2022-09-02T02:03:38;9.57;;;3.38;;
32250;SDS011;41295;48.518;9.206;2022-09-02T02:05:41;4.82;;;3.63;;
32250;SDS011;41295;48.518;9.206;2022-09-02T02:07:45;4.85;;;3.45;;
32250;SDS011;41295;48.518;9.206;2022-09-02T02:09:48;7.97;;;3.90;;
32250;SDS011;41295;48.518;9.206;2022-09-02T02:11:52;6.07;;;3.92;;
32250;SDS011;41295;48.518;9.206;2022-09-02T02:13:55;4.88;;;3.50;;
32250;SDS011;41295;48.518;9.206;2022-09-02T02:15:57;6.30;;;4.47;;
32250;SDS011;41295;48.518;9.206;2022-09-02T02:18:00;6.25;;;3.80;;
32250;SDS011;41295;48.518;9.206;2022-09-02T02:20:04;12.23;;;4.75;;
32250;SDS011;41295;48.518;9.206;2022-09-02T02:22:08;5.88;;;3.80;;
32250;SDS011;41295;48.518;9.206;2022-09-02T02:24:10;6.80;;;3.97;;
32250;SDS011;41295;48.518;9.206;2022-09-02T02:26:13;5.32;;;3.70;;
32250;SDS011;41295;48.518;9.206;2022-09-02T02:28:17;7.55;;;3.70;;
32250;SDS011;41295;48.518;9.206;2022-09-02T02:30:20;5.68;;;3.92;;
32250;SDS011;41295;48.518;9.206;2022-09-02T02:32:23;9.23;;;3.70;;
32250;SDS011;41295;48.518;9.206;2022-09-02T02:34:26;5.43;;;3.38;;
32250;SDS011;41295;48.518;9.206;2022-09-02T02:36:29;6.63;;;3.78;;
32250;SDS011;41295;48.518;9.206;2022-09-02T02:38:32;6.90;;;4.65;;
32250;SDS011;41295;48.518;9.206;2022-09-02T02:40:36;5.97;;;3.50;;
32250;SDS011;41295;48.518;9.206;2022-09-02T02:42:39;8.18;;;3.80;;
32250;SDS011;41295;48.518;9.206;2022-09-02T02:44:43;5.65;;;3.80;;
32250;SDS011;41295;48.518;9.206;2022-09-02T02:46:48;7.30;;;3.83;;
32250;SDS011;41295;48.518;9.206;2022-09-02T02:48:53;5.45;;;3.95;;
32250;SDS011;41295;48.518;9.206;2022-09-02T02:50:56;6.72;;;3.88;;
32250;SDS011;41295;48.518;9.206;2022-09-02T02:52:58;6.20;;;3.97;;
32250;SDS011;41295;48.518;9.206;2022-09-02T02:55:03;6.38;;;4.03;;
32250;SDS011;41295;48.518;9.206;2022-09-02T02:57:07;8.05;;;4.00;;
32250;SDS011;41295;48.518;9.206;2022-09-02T02:59:10;10.70;;;4.05;;
32250;SDS011;41295;48.518;9.206;2022-09-02T03:01:15;7.38;;;4.50;;
32250;SDS011;41295;48.518;9.206;2022-09-02T03:03:18;9.85;;;3.95;;
32250;SDS011;41295;48.518;9.206;2022-09-02T03:05:22;6.47;;;4.25;;
32250;SDS011;41295;48.518;9.206;2022-09-02T03:07:26;5.10;;;3.95;;
32250;SDS011;41295;48.518;9.206;2022-09-02T03:09:28;6.10;;;3.75;;
32250;SDS011;41295;48.518;9.206;2022-09-02T03:11:32;6.18;;;4.53;;
32250;SDS011;41295;48.518;9.206;2022-09-02T03:13:34;7.47;;;4.13;;
32250;SDS011;41295;48.518;9.206;2022-09-02T03:15:38;7.78;;;3.95;;
32250;SDS011;41295;48.518;9.206;2022-09-02T03:17:42;9.60;;;4.00;;
32250;SDS011;41295;48.518;9.206;2022-09-02T03:19:45;6.80;;;4.47;;
32250;SDS011;41295;48.518;9.206;2022-09-02T03:21:48;5.65;;;4.38;;
32250;SDS011;41295;48.518;9.206;2022-09-02T03:23:52;14.88;;;4.18;;
32250;SDS011;41295;48.518;9.206;2022-09-02T03:25:58;9.30;;;3.97;;
32250;SDS011;41295;48.518;9.206;2022-09-02T03:28:01;8.63;;;3.90;;
32250;SDS011;41295;48.518;9.206;2022-09-02T03:30:06;5.97;;;4.20;;
32250;SDS011;41295;48.518;9.206;2022-09-02T03:32:10;9.10;;;3.92;;
32250;SDS011;41295;48.518;9.206;2022-09-02T03:34:17;4.88;;;3.92;;
32250;SDS011;41295;48.518;9.206;2022-09-02T03:36:20;9.27;;;4.25;;
32250;SDS011;41295;48.518;9.206;2022-09-02T03:38:25;10.85;;;4.03;;
32250;SDS011;41295;48.518;9.206;2022-09-02T03:40:28;7.18;;;3.88;;
32250;SDS011;41295;48.518;9.206;2022-09-02T03:42:31;6.60;;;3.85;;
32250;SDS011;41295;48.518;9.206;2022-09-02T03:44:34;6.13;;;4.05;;
32250;SDS011;41295;48.518;9.206;2022-09-02T03:46:37;6.95;;;3.90;;
32250;SDS011;41295;48.518;9.206;2022-09-02T03:48:39;7.28;;;3.80;;
32250;SDS011;41295;48.518;9.206;2022-09-02T03:50:43;5.75;;;3.60;;
32250;SDS011;41295;48.518;9.206;2022-09-02T03:52:48;6.53;;;4.15;;
32250;SDS011;41295;48.518;9.206;2022-09-02T03:54:53;8.05;;;4.00;;
32250;SDS011;41295;48.518;9.206;2022-09-02T03:56:56;7.88;;;4.30;;
32250;SDS011;41295;48.518;9.206;2022-09-02T03:59:00;6.55;;;3.83;;
32250;SDS011;41295;48.518;9.206;2022-09-02T04:01:04;8.75;;;3.78;;
32250;SDS011;41295;48.518;9.206;2022-09-02T04:03:06;8.23;;;4.38;;
32250;SDS011;41295;48.518;9.206;2022-09-02T04:05:09;4.65;;;4.03;;
32250;SDS011;41295;48.518;9.206;2022-09-02T04:07:17;6.60;;;4.38;;
32250;SDS011;41295;48.518;9.206;2022-09-02T04:09:21;8.10;;;4.15;;
32250;SDS011;41295;48.518;9.206;2022-09-02T04:11:23;9.65;;;3.47;;
32250;SDS011;41295;48.518;9.206;2022-09-02T04:13:26;11.10;;;3.85;;
32250;SDS011;41295;48.518;9.206;2022-09-02T04:15:29;5.50;;;4.30;;
32250;SDS011;41295;48.518;9.206;2022-09-02T04:17:33;5.88;;;4.00;;
32250;SDS011;41295;48.518;9.206;2022-09-02T04:19:37;10.13;;;3.80;;
32250;SDS011;41295;48.518;9.206;2022-09-02T04:21:40;8.88;;;3.70;;
32250;SDS011;41295;48.518;9.206;2022-09-02T04:23:44;7.57;;;4.07;;
32250;SDS011;41295;48.518;9.206;2022-09-02T04:25:47;6.72;;;3.95;;
32250;SDS011;41295;48.518;9.206;2022-09-02T04:27:50;5.13;;;3.45;;
32250;SDS011;41295;48.518;9.206;2022-09-02T04:29:52;5.13;;;3.88;;
32250;SDS011;41295;48.518;9.206;2022-09-02T04:31:56;8.43;;;3.60;;
32250;SDS011;41295;48.518;9.206;2022-09-02T04:33:59;8.13;;;3.70;;
32250;SDS011;41295;48.518;9.206;2022-09-02T04:36:03;5.78;;;3.88;;
32250;SDS011;41295;48.518;9.206;2022-09-02T04:38:06;5.43;;;3.55;;
32250;SDS011;41295;48.518;9.206;2022-09-02T04:40:10;11.40;;;3.40;;
32250;SDS011;41295;48.518;9.206;2022-09-02T04:42:13;7.32;;;3.58;;
32250;SDS011;41295;48.518;9.206;2022-09-02T04:44:16;10.32;;;3.85;;
32250;SDS011;41295;48.518;9.206;2022-09-02T04:46:18;8.52;;;3.42;;
32250;SDS011;41295;48.518;9.206;2022-09-02T04:48:35;8.60;;;3.85;;
32250;SDS011;41295;48.518;9.206;2022-09-02T04:50:38;5.80;;;3.53;;
32250;SDS011;41295;48.518;9.206;2022-09-02T04:52:42;6.82;;;3.13;;
32250;SDS011;41295;48.518;9.206;2022-09-02T04:54:45;6.88;;;3.55;;
32250;SDS011;41295;48.518;9.206;2022-09-02T04:56:49;8.52;;;3.50;;
32250;SDS011;41295;48.518;9.206;2022-09-02T04:58:52;9.23;;;3.70;;
32250;SDS011;41295;48.518;9.206;2022-09-02T05:00:55;6.82;;;3.63;;
32250;SDS011;41295;48.518;9.206;2022-09-02T05:02:58;7.85;;;3.22;;
32250;SDS011;41295;48.518;9.206;2022-09-02T05:05:01;10.52;;;3.70;;
32250;SDS011;41295;48.518;9.206;2022-09-02T05:07:04;6.03;;;3.65;;
32250;SDS011;41295;48.518;9.206;2022-09-02T05:09:06;5.85;;;3.75;;
32250;SDS011;41295;48.518;9.206;2022-09-02T05:11:10;8.27;;;3.60;;
32250;SDS011;41295;48.518;9.206;2022-09-02T05:13:16;7.10;;;3.15;;
32250;SDS011;41295;48.518;9.206;2022-09-02T05:15:19;7.22;;;3.53;;
32250;SDS011;41295;48.518;9.206;2022-09-02T05:17:21;7.20;;;3.33;;
32250;SDS011;41295;48.518;9.206;2022-09-02T05:19:24;9.52;;;3.38;;
32250;SDS011;41295;48.518;9.206;2022-09-02T05:21:27;7.20;;;3.50;;
32250;SDS011;41295;48.518;9.206;2022-09-02T05:23:33;7.32;;;3.28;;
32250;SDS011;41295;48.518;9.206;2022-09-02T05:25:36;7.18;;;3.60;;
32250;SDS011;41295;48.518;9.206;2022-09-02T05:27:39;4.53;;;3.53;;
32250;SDS011;41295;48.518;9.206;2022-09-02T05:29:43;6.40;;;3.42;;
32250;SDS011;41295;48.518;9.206;2022-09-02T05:31:46;7.20;;;3.70;;
32250;SDS011;41295;48.518;9.206;2022-09-02T05:33:49;4.57;;;3.53;;
32250;SDS011;41295;48.518;9.206;2022-09-02T05:35:52;7.68;;;3.70;;
32250;SDS011;41295;48.518;9.206;2022-09-02T05:37:54;7.00;;;3.60;;
32250;SDS011;41295;48.518;9.206;2022-09-02T05:40:01;7.82;;;3.78;;
32250;SDS011;41295;48.518;9.206;2022-09-02T05:42:05;6.07;;;3.78;;
32250;SDS011;41295;48.518;9.206;2022-09-02T05:44:08;5.93;;;3.85;;
32250;SDS011;41295;48.518;9.206;2022-09-02T05:46:13;11.70;;;4.10;;
32250;SDS011;41295;48.518;9.206;2022-09-02T05:48:18;5.80;;;3.67;;
32250;SDS011;41295;48.518;9.206;2022-09-02T05:50:40;10.90;;;4.18;;
32250;SDS011;41295;48.518;9.206;2022-09-02T05:52:48;5.00;;;3.47;;
32250;SDS011;41295;48.518;9.206;2022-09-02T05:54:53;6.63;;;3.50;;
32250;SDS011;41295;48.518;9.206;2022-09-02T05:56:56;8.27;;;3.60;;
32250;SDS011;41295;48.518;9.206;2022-09-02T05:59:00;7.63;;;3.70;;
32250;SDS011;41295;48.518;9.206;2022-09-02T06:01:06;6.40;;;3.83;;
32250;SDS011;41295;48.518;9.206;2022-09-02T06:03:11;6.60;;;3.85;;
32250;SDS011;41295;48.518;9.206;2022-09-02T06:05:14;7.22;;;3.40;;
32250;SDS011;41295;48.518;9.206;2022-09-02T06:07:19;4.90;;;3.40;;
32250;SDS011;41295;48.518;9.206;2022-09-02T06:09:24;4.90;;;4.10;;
32250;SDS011;41295;48.518;9.206;2022-09-02T06:11:27;6.57;;;4.03;;
32250;SDS011;41295;48.518;9.206;2022-09-02T06:13:30;7.50;;;3.92;;
32250;SDS011;41295;48.518;9.206;2022-09-02T06:15:39;7.25;;;4.07;;
32250;SDS011;41295;48.518;9.206;2022-09-02T06:17:44;4.85;;;3.45;;
32250;SDS011;41295;48.518;9.206;2022-09-02T06:19:48;4.13;;;3.15;;
32250;SDS011;41295;48.518;9.206;2022-09-02T06:21:53;8.63;;;4.00;;
32250;SDS011;41295;48.518;9.206;2022-09-02T06:23:56;5.57;;;3.35;;
32250;SDS011;41295;48.518;9.206;2022-09-02T06:25:59;8.27;;;3.97;;
32250;SDS011;41295;48.518;9.206;2022-09-02T06:28:02;6.95;;;3.40;;
32250;SDS011;41295;48.518;9.206;2022-09-02T06:30:08;6.75;;;3.22;;
32250;SDS011;41295;48.518;9.206;2022-09-02T06:32:11;8.80;;;3.20;;
32250;SDS011;41295;48.518;9.206;2022-09-02T06:34:14;3.67;;;2.90;;
32250;SDS011;41295;48.518;9.206;2022-09-02T06:36:20;4.10;;;3.03;;
32250;SDS011;41295;48.518;9.206;2022-09-02T06:38:28;5.75;;;3.00;;
32250;SDS011;41295;48.518;9.206;2022-09-02T06:40:31;5.93;;;3.97;;
32250;SDS011;41295;48.518;9.206;2022-09-02T06:42:34;4.38;;;3.05;;
32250;SDS011;41295;48.518;9.206;2022-09-02T06:44:36;6.47;;;3.30;;
32250;SDS011;41295;48.518;9.206;2022-09-02T06:46:40;4.68;;;2.97;;
32250;SDS011;41295;48.518;9.206;2022-09-02T06:48:44;5.38;;;3.20;;
32250;SDS011;41295;48.518;9.206;2022-09-02T06:50:48;4.47;;;3.00;;
32250;SDS011;41295;48.518;9.206;2022-09-02T06:52:53;5.35;;;2.83;;
32250;SDS011;41295;48.518;9.206;2022-09-02T06:54:55;11.85;;;3.80;;
32250;SDS011;41295;48.518;9.206;2022-09-02T06:56:58;3.97;;;3.13;;
32250;SDS011;41295;48.518;9.206;2022-09-02T06:59:01;12.73;;;3.60;;
32250;SDS011;41295;48.518;9.206;2022-09-02T07:01:04;5.03;;;3.30;;
32250;SDS011;41295;48.518;9.206;2022-09-02T07:03:08;7.28;;;3.40;;
32250;SDS011;41295;48.518;9.206;2022-09-02T07:05:28;4.10;;;2.92;;
32250;SDS011;41295;48.518;9.206;2022-09-02T07:07:33;6.55;;;2.90;;
32250;SDS011;41295;48.518;9.206;2022-09-02T07:09:37;9.27;;;3.30;;
32250;SDS011;41295;48.518;9.206;2022-09-02T07:11:40;8.38;;;3.17;;
32250;SDS011;41295;48.518;9.206;2022-09-02T07:13:43;7.60;;;3.50;;
32250;SDS011;41295;48.518;9.206;2022-09-02T07:15:45;5.70;;;3.38;;
32250;SDS011;41295;48.518;9.206;2022-09-02T07:17:48;5.65;;;3.10;;
32250;SDS011;41295;48.518;9.206;2022-09-02T07:19:51;12.98;;;4.10;;
32250;SDS011;41295;48.518;9.206;2022-09-02T07:21:56;6.78;;;4.63;;
32250;SDS011;41295;48.518;9.206;2022-09-02T07:23:59;9.13;;;2.95;;
32250;SDS011;41295;48.518;9.206;2022-09-02T07:26:03;3.75;;;2.78;;
32250;SDS011;41295;48.518;9.206;2022-09-02T07:28:12;4.10;;;2.90;;
32250;SDS011;41295;48.518;9.206;2022-09-02T07:30:14;4.07;;;2.75;;
32250;SDS011;41295;48.518;9.206;2022-09-02T07:32:17;3.80;;;2.80;;
32250;SDS011;41295;48.518;9.206;2022-09-02T07:34:20;4.60;;;2.75;;
32250;SDS011;41295;48.518;9.206;2022-09-02T07:36:23;8.18;;;3.30;;
32250;SDS011;41295;48.518;9.206;2022-09-02T07:38:26;6.78;;;3.35;;
32250;SDS011;41295;48.518;9.206;2022-09-02T07:40:30;6.45;;;2.88;;
32250;SDS011;41295;48.518;9.206;2022-09-02T07:42:34;5.93;;;3.13;;
32250;SDS011;41295;48.518;9.206;2022-09-02T07:44:36;5.72;;;3.30;;
32250;SDS011;41295;48.518;9.206;2022-09-02T07:46:39;5.75;;;3.15;;
32250;SDS011;41295;48.518;9.206;2022-09-02T07:48:46;5.43;;;3.15;;
32250;SDS011;41295;48.518;9.206;2022-09-02T07:50:50;7.95;;;3.33;;
32250;SDS011;41295;48.518;9.206;2022-09-02T07:52:54;12.00;;;3.92;;
32250;SDS011;41295;48.518;9.206;2022-09-02T07:54:57;4.72;;;3.33;;
32250;SDS011;41295;48.518;9.206;2022-09-02T07:57:00;7.00;;;3.40;;
32250;SDS011;41295;48.518;9.206;2022-09-02T07:59:04;7.53;;;3.10;;
32250;SDS011;41295;48.518;9.206;2022-09-02T08:01:07;4.35;;;3.05;;
32250;SDS011;41295;48.518;9.206;2022-09-02T08:03:10;5.32;;;3.60;;
32250;SDS011;41295;48.518;9.206;2022-09-02T08:05:13;5.38;;;3.00;;
32250;SDS011;41295;48.518;9.206;2022-09-02T08:07:16;6.85;;;3.40;;
32250;SDS011;41295;48.518;9.206;2022-09-02T08:09:24;4.25;;;3.30;;
32250;SDS011;41295;48.518;9.206;2022-09-02T08:11:26;8.65;;;3.63;;
32250;SDS011;41295;48.518;9.206;2022-09-02T08:13:29;4.70;;;2.88;;
32250;SDS011;41295;48.518;9.206;2022-09-02T08:15:33;10.48;;;3.17;;
32250;SDS011;41295;48.518;9.206;2022-09-02T08:17:37;6.40;;;3.65;;
32250;SDS011;41295;48.518;9.206;2022-09-02T08:19:41;5.32;;;2.78;;
32250;SDS011;41295;48.518;9.206;2022-09-02T08:21:45;9.30;;;3.45;;
32250;SDS011;41295;48.518;9.206;2022-09-02T08:23:47;6.25;;;3.22;;
32250;SDS011;41295;48.518;9.206;2022-09-02T08:25:50;4.78;;;2.83;;
32250;SDS011;41295;48.518;9.206;2022-09-02T08:27:53;10.13;;;3.10;;
32250;SDS011;41295;48.518;9.206;2022-09-02T08:30:00;5.10;;;3.00;;
32250;SDS011;41295;48.518;9.206;2022-09-02T08:32:04;12.02;;;3.15;;
32250;SDS011;41295;48.518;9.206;2022-09-02T08:34:07;6.18;;;2.85;;
32250;SDS011;41295;48.518;9.206;2022-09-02T08:36:10;3.30;;;2.70;;
32250;SDS011;41295;48.518;9.206;2022-09-02T08:38:15;4.72;;;2.70;;
32250;SDS011;41295;48.518;9.206;2022-09-02T08:40:19;4.80;;;2.70;;
32250;SDS011;41295;48.518;9.206;2022-09-02T08:42:23;3.92;;;2.85;;
32250;SDS011;41295;48.518;9.206;2022-09-02T08:44:33;7.50;;;2.83;;
32250;SDS011;41295;48.518;9.206;2022-09-02T08:46:39;5.85;;;2.90;;
32250;SDS011;41295;48.518;9.206;2022-09-02T08:48:44;5.78;;;2.80;;
32250;SDS011;41295;48.518;9.206;2022-09-02T08:50:51;3.15;;;2.78;;
32250;SDS011;41295;48.518;9.206;2022-09-02T08:53:00;3.83;;;2.28;;
32250;SDS011;41295;48.518;9.206;2022-09-02T08:55:11;5.07;;;2.20;;
32250;SDS011;41295;48.518;9.206;2022-09-02T08:57:19;5.65;;;1.98;;
32250;SDS011;41295;48.518;9.206;2022-09-02T08:59:23;3.33;;;2.13;;
32250;SDS011;41295;48.518;9.206;2022-09-02T09:01:30;5.30;;;1.95;;
32250;SDS011;41295;48.518;9.206;2022-09-02T09:03:46;2.72;;;1.95;;
32250;SDS011;41295;48.518;9.206;2022-09-02T09:06:03;3.85;;;1.70;;
32250;SDS011;41295;48.518;9.206;2022-09-02T09:08:12;2.42;;;1.60;;
32250;SDS011;41295;48.518;9.206;2022-09-02T09:10:23;3.10;;;1.80;;
32250;SDS011;41295;48.518;9.206;2022-09-02T09:12:34;3.50;;;1.80;;
32250;SDS011;41295;48.518;9.206;2022-09-02T09:14:52;3.00;;;1.60;;
32250;SDS011;41295;48.518;9.206;2022-09-02T09:17:03;8.30;;;2.17;;
32250;SDS011;41295;48.518;9.206;2022-09-02T09:19:13;2.50;;;1.58;;
32250;SDS011;41295;48.518;9.206;2022-09-02T09:21:16;3.72;;;1.75;;
32250;SDS011;41295;48.518;9.206;2022-09-02T09:23:21;2.65;;;1.40;;
32250;SDS011;41295;48.518;9.206;2022-09-02T09:25:34;2.97;;;1.35;;
32250;SDS011;41295;48.518;9.206;2022-09-02T09:27:37;3.22;;;1.60;;
32250;SDS011;41295;48.518;9.206;2022-09-02T09:29:40;3.47;;;1.60;;
32250;SDS011;41295;48.518;9.206;2022-09-02T09:31:43;4.15;;;1.80;;
32250;SDS011;41295;48.518;9.206;2022-09-02T09:33:55;4.45;;;1.50;;
32250;SDS011;41295;48.518;9.206;2022-09-02T09:36:00;3.95;;;1.95;;
32250;SDS011;41295;48.518;9.206;2022-09-02T09:38:10;3.55;;;2.10;;
32250;SDS011;41295;48.518;9.206;2022-09-02T09:42:32;4.15;;;1.70;;
32250;SDS011;41295;48.518;9.206;2022-09-02T09:44:37;2.22;;;1.50;;
32250;SDS011;41295;48.518;9.206;2022-09-02T09:46:44;4.15;;;1.83;;
32250;SDS011;41295;48.518;9.206;2022-09-02T09:48:47;3.92;;;1.83;;
32250;SDS011;41295;48.518;9.206;2022-09-02T09:51:13;2.85;;;1.83;;
32250;SDS011;41295;48.518;9.206;2022-09-02T09:53:17;2.53;;;1.90;;
32250;SDS011;41295;48.518;9.206;2022-09-02T09:55:21;5.53;;;2.00;;
32250;SDS011;41295;48.518;9.206;2022-09-02T09:57:25;7.20;;;2.22;;
32250;SDS011;41295;48.518;9.206;2022-09-02T09:59:36;5.07;;;2.72;;
32250;SDS011;41295;48.518;9.206;2022-09-02T10:01:48;2.97;;;1.80;;
32250;SDS011;41295;48.518;9.206;2022-09-02T10:03:53;4.15;;;1.80;;
32250;SDS011;41295;48.518;9.206;2022-09-02T10:05:58;1.92;;;1.75;;
32250;SDS011;41295;48.518;9.206;2022-09-02T10:08:22;2.72;;;1.90;;
32250;SDS011;41295;48.518;9.206;2022-09-02T10:10:26;5.88;;;1.90;;
32250;SDS011;41295;48.518;9.206;2022-09-02T10:12:31;3.20;;;1.67;;
32250;SDS011;41295;48.518;9.206;2022-09-02T10:14:35;3.92;;;1.95;;
32250;SDS011;41295;48.518;9.206;2022-09-02T10:16:47;3.58;;;2.55;;
32250;SDS011;41295;48.518;9.206;2022-09-02T10:19:00;3.45;;;2.25;;
32250;SDS011;41295;48.518;9.206;2022-09-02T10:21:13;3.15;;;1.80;;
32250;SDS011;41295;48.518;9.206;2022-09-02T10:23:34;2.05;;;1.85;;
32250;SDS011;41295;48.518;9.206;2022-09-02T10:25:50;3.10;;;2.10;;
32250;SDS011;41295;48.518;9.206;2022-09-02T10:28:01;5.18;;;1.90;;
32250;SDS011;41295;48.518;9.206;2022-09-02T10:30:10;5.25;;;2.00;;
32250;SDS011;41295;48.518;9.206;2022-09-02T10:34:50;3.00;;;2.10;;
32250;SDS011;41295;48.518;9.206;2022-09-02T10:37:08;4.35;;;2.10;;
32250;SDS011;41295;48.518;9.206;2022-09-02T10:39:19;3.15;;;2.00;;
32250;SDS011;41295;48.518;9.206;2022-09-02T10:41:37;5.72;;;2.10;;
32250;SDS011;41295;48.518;9.206;2022-09-02T10:43:59;5.40;;;2.30;;
32250;SDS011;41295;48.518;9.206;2022-09-02T10:46:29;2.60;;;2.22;;
32250;SDS011;41295;48.518;9.206;2022-09-02T10:48:44;2.65;;;1.80;;
32250;SDS011;41295;48.518;9.206;2022-09-02T10:50:59;4.72;;;1.85;;
32250;SDS011;41295;48.518;9.206;2022-09-02T10:53:11;2.00;;;1.75;;
32250;SDS011;41295;48.518;9.206;2022-09-02T10:55:24;3.92;;;2.05;;
32250;SDS011;41295;48.518;9.206;2022-09-02T10:57:39;2.70;;;1.85;;
32250;SDS011;41295;48.518;9.206;2022-09-02T10:59:48;4.13;;;1.88;;
32250;SDS011;41295;48.518;9.206;2022-09-02T11:01:56;2.65;;;2.05;;
32250;SDS011;41295;48.518;9.206;2022-09-02T11:04:04;5.43;;;2.00;;
32250;SDS011;41295;48.518;9.206;2022-09-02T11:06:14;3.80;;;1.98;;
32250;SDS011;41295;48.518;9.206;2022-09-02T11:08:26;2.15;;;1.83;;
32250;SDS011;41295;48.518;9.206;2022-09-02T11:10:39;15.48;;;4.05;;
32250;SDS011;41295;48.518;9.206;2022-09-02T11:12:48;15.40;;;3.88;;
32250;SDS011;41295;48.518;9.206;2022-09-02T11:14:56;46.03;;;8.32;;
32250;SDS011;41295;48.518;9.206;2022-09-02T11:17:04;14.95;;;3.50;;
32250;SDS011;41295;48.518;9.206;2022-09-02T11:19:15;4.68;;;2.22;;
32250;SDS011;41295;48.518;9.206;2022-09-02T11:21:26;6.18;;;2.70;;
32250;SDS011;41295;48.518;9.206;2022-09-02T11:23:39;14.80;;;2.83;;
32250;SDS011;41295;48.518;9.206;2022-09-02T11:25:46;3.17;;;1.98;;
32250;SDS011;41295;48.518;9.206;2022-09-02T11:27:57;7.93;;;2.63;;
32250;SDS011;41295;48.518;9.206;2022-09-02T11:30:08;6.32;;;2.40;;
32250;SDS011;41295;48.518;9.206;2022-09-02T11:32:14;6.07;;;2.85;;
32250;SDS011;41295;48.518;9.206;2022-09-02T11:34:25;5.90;;;2.33;;
32250;SDS011;41295;48.518;9.206;2022-09-02T11:36:38;5.13;;;2.40;;
32250;SDS011;41295;48.518;9.206;2022-09-02T11:38:44;4.22;;;1.63;;
32250;SDS011;41295;48.518;9.206;2022-09-02T11:40:58;3.00;;;1.90;;
32250;SDS011;41295;48.518;9.206;2022-09-02T11:43:40;3.35;;;1.85;;
32250;SDS011;41295;48.518;9.206;2022-09-02T11:45:56;4.95;;;2.47;;
32250;SDS011;41295;48.518;9.206;2022-09-02T11:48:33;6.20;;;2.28;;
32250;SDS011;41295;48.518;9.206;2022-09-02T11:50:53;6.43;;;2.80;;
32250;SDS011;41295;48.518;9.206;2022-09-02T11:53:11;4.60;;;1.98;;
32250;SDS011;41295;48.518;9.206;2022-09-02T11:55:23;6.53;;;2.65;;
32250;SDS011;41295;48.518;9.206;2022-09-02T11:57:29;4.18;;;2.10;;
32250;SDS011;41295;48.518;9.206;2022-09-02T12:02:13;3.53;;;1.98;;
32250;SDS011;41295;48.518;9.206;2022-09-02T12:04:35;3.13;;;1.65;;
32250;SDS011;41295;48.518;9.206;2022-09-02T12:09:41;6.45;;;1.98;;
32250;SDS011;41295;48.518;9.206;2022-09-02T12:11:46;6.05;;;1.70;;
32250;SDS011;41295;48.518;9.206;2022-09-02T12:13:55;3.27;;;2.10;;
32250;SDS011;41295;48.518;9.206;2022-09-02T12:18:36;4.72;;;1.98;;
32250;SDS011;41295;48.518;9.206;2022-09-02T12:25:55;2.13;;;1.85;;
32250;SDS011;41295;48.518;9.206;2022-09-02T12:28:10;4.53;;;2.08;;
32250;SDS011;41295;48.518;9.206;2022-09-02T12:33:02;3.88;;;1.80;;
32250;SDS011;41295;48.518;9.206;2022-09-02T12:35:28;4.28;;;2.15;;
32250;SDS011;41295;48.518;9.206;2022-09-02T12:37:49;2.95;;;2.10;;
32250;SDS011;41295;48.518;9.206;2022-09-02T12:39:57;2.63;;;2.00;;
32250;SDS011;41295;48.518;9.206;2022-09-02T12:42:14;4.10;;;1.75;;
32250;SDS011;41295;48.518;9.206;2022-09-02T12:44:26;4.57;;;1.90;;
32250;SDS011;41295;48.518;9.206;2022-09-02T12:46:38;5.68;;;1.92;;
32250;SDS011;41295;48.518;9.206;2022-09-02T12:48:50;2.75;;;2.00;;
32250;SDS011;41295;48.518;9.206;2022-09-02T12:51:02;2.45;;;1.70;;
32250;SDS011;41295;48.518;9.206;2022-09-02T12:53:06;2.55;;;1.52;;
32250;SDS011;41295;48.518;9.206;2022-09-02T12:55:22;2.53;;;1.58;;
32250;SDS011;41295;48.518;9.206;2022-09-02T12:57:36;3.53;;;1.88;;
32250;SDS011;41295;48.518;9.206;2022-09-02T12:59:41;5.63;;;2.55;;